Time;durP1;ratioP1;P1;durP2;ratioP2;P2;SDS_P1;SDS_P2;PMS_P1;PMS_P2;Temp;Humidity;BMP_temperature;BMP_pressure;BME280_temperature;BME280_humidity;BME280_pressure;Samples;Min_cycle;Max_cycle;Signal;HPM_P1;HPM_P2
2023/11/02 00:02:29;;;;;;;11.23;1.90;;;23.20;65.40;;;;;;10431672;28;20247;-54
2023/11/02 00:07:33;;;;;;;8.50;1.40;;;23.20;65.50;;;;;;10434497;28;20247;-54
2023/11/02 00:12:38;;;;;;;4.45;1.27;;;23.20;65.40;;;;;;10433642;28;20227;-55
2023/11/02 00:17:54;;;;;;;6.30;1.20;;;23.20;65.40;;;;;;10441063;28;20259;-55
2023/11/02 00:22:58;;;;;;;7.63;1.25;;;23.20;65.40;;;;;;10439403;28;20247;-57
2023/11/02 00:28:02;;;;;;;7.57;1.20;;;23.20;66.20;;;;;;10442236;28;20278;-53
2023/11/02 00:33:07;;;;;;;3.53;1.13;;;23.20;65.40;;;;;;10436233;28;20226;-55
2023/11/02 00:38:11;;;;;;;3.58;1.23;;;23.20;65.40;;;;;;10435679;28;20248;-52
2023/11/02 00:43:15;;;;;;;2.22;0.95;;;23.20;65.30;;;;;;10440430;28;20248;-55
2023/11/02 00:48:22;;;;;;;2.20;0.90;;;23.20;65.30;;;;;;10437645;28;21714;-56
2023/11/02 00:53:26;;;;;;;2.55;0.95;;;23.20;65.30;;;;;;10440816;28;20214;-54
2023/11/02 00:58:31;;;;;;;2.85;1.10;;;23.20;65.30;;;;;;10438349;28;20250;-56
2023/11/02 01:03:36;;;;;;;3.38;1.15;;;23.20;65.30;;;;;;10442969;28;20247;-55
2023/11/02 01:08:39;;;;;;;2.17;0.95;;;23.20;65.40;;;;;;10440882;28;20254;-56
2023/11/02 01:13:43;;;;;;;3.60;1.00;;;23.20;65.20;;;;;;10441508;28;20288;-56
2023/11/02 01:18:48;;;;;;;1.10;0.70;;;23.20;65.20;;;;;;10436845;28;20251;-57
2023/11/02 01:24:02;;;;;;;2.10;0.75;;;23.10;65.10;;;;;;10443652;28;20764;-56
2023/11/02 01:29:06;;;;;;;2.00;0.90;;;23.10;65.00;;;;;;10434154;28;20251;-55
2023/11/02 01:34:18;;;;;;;1.92;0.90;;;23.10;65.00;;;;;;10432169;28;20219;-57
2023/11/02 01:39:52;;;;;;;2.15;0.90;;;23.20;65.20;;;;;;10434451;28;20239;-56
2023/11/02 01:45:05;;;;;;;2.80;0.90;;;23.10;65.00;;;;;;10434375;28;20772;-57
2023/11/02 01:50:15;;;;;;;1.92;0.80;;;23.20;65.10;;;;;;10436272;28;20672;-54
2023/11/02 01:55:27;;;;;;;3.80;0.70;;;23.10;65.00;;;;;;10437410;28;20300;-56
2023/11/02 02:00:42;;;;;;;1.33;0.70;;;23.10;65.00;;;;;;10437944;28;20794;-56
2023/11/02 02:05:52;;;;;;;1.23;0.70;;;23.10;64.90;;;;;;10434792;28;20255;-52
2023/11/02 02:11:10;;;;;;;2.53;0.73;;;23.20;65.10;;;;;;10433915;28;20289;-53
2023/11/02 02:16:23;;;;;;;1.02;0.80;;;23.10;64.90;;;;;;10446990;28;20215;-56
2023/11/02 02:21:34;;;;;;;1.08;0.88;;;23.10;64.90;;;;;;10450875;28;20833;-54
2023/11/02 02:27:03;;;;;;;3.00;1.02;;;23.10;64.90;;;;;;10449178;28;20231;-56
2023/11/02 02:32:44;;;;;;;4.13;0.98;;;23.10;64.90;;;;;;10447373;28;20196;-56
2023/11/02 02:37:52;;;;;;;1.63;0.70;;;23.10;64.90;;;;;;10446179;28;20298;-54
2023/11/02 02:42:56;;;;;;;2.15;1.00;;;23.10;64.80;;;;;;10448828;28;20246;-56
2023/11/02 02:48:02;;;;;;;1.38;0.88;;;23.10;64.80;;;;;;10444278;28;20273;-54
2023/11/02 02:53:10;;;;;;;0.82;0.60;;;23.10;65.60;;;;;;10445571;28;20342;-54
2023/11/02 02:58:16;;;;;;;3.05;0.68;;;23.10;64.80;;;;;;10446966;28;20251;-53
2023/11/02 03:03:23;;;;;;;1.95;0.75;;;23.10;64.80;;;;;;10440563;28;20290;-55
2023/11/02 03:08:30;;;;;;;1.45;0.60;;;23.10;64.80;;;;;;10450130;28;20260;-56
2023/11/02 03:13:33;;;;;;;1.88;0.80;;;23.10;64.80;;;;;;10437298;28;20282;-57
2023/11/02 03:18:39;;;;;;;0.93;0.63;;;23.10;64.80;;;;;;10437886;28;20302;-56
2023/11/02 03:23:51;;;;;;;3.35;0.77;;;23.10;64.70;;;;;;10444534;28;20293;-53
2023/11/02 03:29:05;;;;;;;1.10;0.70;;;23.10;64.80;;;;;;10444377;28;20251;-54
2023/11/02 03:34:15;;;;;;;0.95;0.60;;;23.10;64.70;;;;;;10435428;28;20261;-57
2023/11/02 03:39:29;;;;;;;1.63;0.70;;;23.10;64.70;;;;;;10443748;28;20227;-54
2023/11/02 03:44:44;;;;;;;3.92;0.75;;;23.10;64.70;;;;;;10444247;28;20732;-55
2023/11/02 03:50:03;;;;;;;2.10;0.98;;;23.10;64.60;;;;;;10445550;28;20230;-58
2023/11/02 03:55:24;;;;;;;2.38;0.90;;;23.10;64.70;;;;;;10441809;28;20203;-56
2023/11/02 04:00:32;;;;;;;0.70;0.70;;;23.00;64.60;;;;;;10438862;28;20203;-55
2023/11/02 04:05:39;;;;;;;1.42;0.70;;;23.00;64.50;;;;;;10439177;28;20259;-57
2023/11/02 04:10:58;;;;;;;0.77;0.70;;;23.10;64.60;;;;;;10438833;28;20262;-54
2023/11/02 04:16:01;;;;;;;1.40;0.60;;;23.00;64.50;;;;;;10437671;28;20262;-55
2023/11/02 04:21:06;;;;;;;0.93;0.73;;;23.10;64.60;;;;;;10444496;28;20227;-54
2023/11/02 04:26:10;;;;;;;0.70;0.50;;;23.10;64.60;;;;;;10435831;28;20262;-58
2023/11/02 04:31:14;;;;;;;1.13;0.52;;;23.10;64.50;;;;;;10443862;28;20224;-55
2023/11/02 04:36:18;;;;;;;1.05;0.60;;;23.10;64.60;;;;;;10443402;28;20246;-53
2023/11/02 04:41:24;;;;;;;0.93;0.70;;;23.00;64.40;;;;;;10440496;28;20219;-56
2023/11/02 04:46:27;;;;;;;1.85;0.80;;;23.10;64.50;;;;;;10446223;28;20293;-56
2023/11/02 04:51:31;;;;;;;1.98;0.70;;;23.10;64.50;;;;;;10440984;28;20312;-53
2023/11/02 04:56:36;;;;;;;1.38;0.70;;;23.10;65.30;;;;;;10440924;28;20239;-56
2023/11/02 05:01:40;;;;;;;1.45;0.52;;;23.10;64.40;;;;;;10431986;28;20223;-56
2023/11/02 05:06:44;;;;;;;9.05;1.05;;;23.00;64.30;;;;;;10430943;28;20353;-56
2023/11/02 05:11:49;;;;;;;10.07;1.27;;;23.10;64.30;;;;;;10364010;28;20717;-56
2023/11/02 05:16:52;;;;;;;2.05;0.82;;;23.00;64.20;;;;;;10404157;28;20220;-54
2023/11/02 05:21:56;;;;;;;7.43;0.90;;;23.10;64.30;;;;;;10407896;28;20207;-49
2023/11/02 05:27:01;;;;;;;4.45;1.10;;;23.10;64.30;;;;;;10409897;28;20228;-52
2023/11/02 05:32:05;;;;;;;6.05;1.75;;;23.10;64.20;;;;;;10392980;28;20232;-54
2023/11/02 05:37:08;;;;;;;5.20;1.15;;;23.10;64.20;;;;;;10390202;28;20216;-52
2023/11/02 05:42:13;;;;;;;3.83;1.00;;;23.20;64.20;;;;;;10387564;28;20247;-56
2023/11/02 05:47:18;;;;;;;1.70;0.65;;;23.20;64.20;;;;;;10393911;28;20309;-53
2023/11/02 05:52:21;;;;;;;3.67;0.73;;;23.30;64.20;;;;;;10402560;28;20208;-48
2023/11/02 05:57:26;;;;;;;3.35;1.00;;;23.30;64.20;;;;;;10405453;28;20707;-56
2023/11/02 06:02:32;;;;;;;2.58;0.80;;;23.30;64.10;;;;;;10409799;28;20365;-50
2023/11/02 06:07:37;;;;;;;1.98;0.80;;;23.40;64.10;;;;;;10392704;28;20742;-54
2023/11/02 06:12:42;;;;;;;2.50;0.90;;;23.40;64.10;;;;;;10397379;28;20243;-57
2023/11/02 06:17:46;;;;;;;1.05;0.73;;;23.40;64.10;;;;;;10395947;28;20278;-54
2023/11/02 06:22:49;;;;;;;3.30;0.88;;;23.40;64.10;;;;;;10403938;28;20248;-53
2023/11/02 06:27:54;;;;;;;2.45;0.93;;;23.40;64.00;;;;;;10407583;28;20224;-52
2023/11/02 06:33:02;;;;;;;3.17;0.75;;;23.40;64.00;;;;;;10397593;28;21143;-47
2023/11/02 06:38:06;;;;;;;2.85;1.05;;;23.50;64.10;;;;;;10408001;28;20252;-56
2023/11/02 06:43:11;;;;;;;2.58;0.80;;;23.50;64.10;;;;;;10406676;28;20247;-55
2023/11/02 06:48:15;;;;;;;4.07;0.85;;;23.50;64.10;;;;;;10401690;28;20297;-53
2023/11/02 06:53:19;;;;;;;4.40;1.10;;;23.50;64.00;;;;;;10402012;28;20806;-51
2023/11/02 06:58:24;;;;;;;1.38;0.77;;;23.50;64.00;;;;;;10395167;28;20315;-48
2023/11/02 07:03:31;;;;;;;1.70;0.50;;;23.60;64.00;;;;;;10396999;28;20302;-52
2023/11/02 07:08:35;;;;;;;3.13;0.90;;;23.60;64.00;;;;;;10400607;28;20252;-50
2023/11/02 07:13:40;;;;;;;1.85;0.70;;;23.60;63.90;;;;;;10402727;28;20696;-53
2023/11/02 07:18:44;;;;;;;2.30;0.80;;;23.70;63.90;;;;;;10402299;28;20254;-52
2023/11/02 07:23:49;;;;;;;2.53;0.90;;;23.70;63.90;;;;;;10399723;28;20251;-59
2023/11/02 07:28:57;;;;;;;1.33;0.70;;;23.70;63.80;;;;;;10391616;28;20251;-55
2023/11/02 07:34:00;;;;;;;4.47;0.70;;;23.70;63.80;;;;;;10389046;28;20220;-52
2023/11/02 07:39:05;;;;;;;3.42;0.80;;;23.70;63.90;;;;;;10394875;28;20638;-52
2023/11/02 07:44:10;;;;;;;3.13;1.02;;;23.70;64.00;;;;;;10399687;28;20723;-47
2023/11/02 07:49:13;;;;;;;1.88;0.90;;;23.60;63.90;;;;;;10399679;28;20256;-49
2023/11/02 07:54:17;;;;;;;2.92;1.17;;;23.70;64.10;;;;;;10399124;28;20223;-57
2023/11/02 07:59:22;;;;;;;2.95;0.80;;;23.60;64.00;;;;;;10405399;28;20293;-53
2023/11/02 08:04:26;;;;;;;3.67;1.38;;;23.60;64.00;;;;;;10404230;28;20305;-47
2023/11/02 08:09:30;;;;;;;2.35;0.90;;;23.60;64.00;;;;;;10398518;28;20278;-54
2023/11/02 08:14:35;;;;;;;3.20;1.08;;;23.60;64.00;;;;;;10403390;28;20277;-54
2023/11/02 08:19:38;;;;;;;2.08;1.02;;;23.60;64.00;;;;;;10395336;28;20317;-55
2023/11/02 08:24:42;;;;;;;3.35;1.20;;;23.60;64.00;;;;;;10401296;28;20761;-56
2023/11/02 08:29:48;;;;;;;3.38;1.10;;;23.60;64.00;;;;;;10407813;28;20286;-50
2023/11/02 08:34:51;;;;;;;2.65;1.00;;;23.60;64.10;;;;;;10395738;28;20256;-64
2023/11/02 08:39:56;;;;;;;2.15;1.10;;;23.60;64.00;;;;;;10406254;28;20270;-54
2023/11/02 08:45:01;;;;;;;1.67;1.10;;;23.60;64.10;;;;;;10398010;28;20263;-60
2023/11/02 08:50:05;;;;;;;2.38;1.20;;;23.60;64.00;;;;;;10390943;28;20289;-53
2023/11/02 08:55:09;;;;;;;2.85;1.17;;;23.60;64.00;;;;;;10392937;28;20220;-54
2023/11/02 09:00:16;;;;;;;3.25;1.20;;;23.60;64.10;;;;;;10388712;28;20232;-53
2023/11/02 09:05:20;;;;;;;5.95;1.25;;;23.60;64.00;;;;;;10399050;28;20609;-51
2023/11/02 09:10:24;;;;;;;3.20;1.52;;;23.60;64.10;;;;;;10393876;28;20753;-53
2023/11/02 09:15:30;;;;;;;2.70;1.10;;;23.50;64.00;;;;;;10398440;28;20243;-51
2023/11/02 09:20:33;;;;;;;1.65;1.00;;;23.60;64.10;;;;;;10391000;28;20235;-57
2023/11/02 09:25:37;;;;;;;2.90;1.30;;;23.60;64.10;;;;;;10394413;28;20270;-51
2023/11/02 09:30:43;;;;;;;3.15;1.30;;;23.60;64.00;;;;;;10391013;28;20651;-54
2023/11/02 09:35:48;;;;;;;4.60;1.45;;;23.60;64.00;;;;;;10388151;28;20239;-48
2023/11/02 09:40:53;;;;;;;2.92;1.55;;;23.60;64.00;;;;;;10388555;28;20339;-54
2023/11/02 09:45:58;;;;;;;3.50;1.40;;;23.60;64.00;;;;;;10392037;28;20266;-58
2023/11/02 09:51:02;;;;;;;2.42;1.33;;;23.60;64.10;;;;;;10390477;28;20293;-56
2023/11/02 09:56:07;;;;;;;4.03;1.30;;;23.60;64.10;;;;;;10389580;28;20270;-53
2023/11/02 10:01:13;;;;;;;2.45;1.40;;;23.60;64.10;;;;;;10394015;28;20273;-53
2023/11/02 10:06:17;;;;;;;2.30;1.30;;;23.60;64.10;;;;;;10392048;28;20313;-49
2023/11/02 10:11:24;;;;;;;1.85;1.10;;;23.60;64.10;;;;;;10388529;28;20236;-54
2023/11/02 10:16:29;;;;;;;2.40;1.08;;;23.60;64.10;;;;;;10396982;28;20274;-55
2023/11/02 10:21:33;;;;;;;1.90;1.30;;;23.60;64.10;;;;;;10396940;28;20227;-54
2023/11/02 10:26:37;;;;;;;2.17;0.93;;;23.60;64.10;;;;;;10393396;28;20248;-54
2023/11/02 10:31:44;;;;;;;1.48;1.13;;;23.60;64.10;;;;;;10395783;28;20220;-50
2023/11/02 10:36:48;;;;;;;1.88;0.98;;;23.60;64.10;;;;;;10392513;28;20708;-51
2023/11/02 10:41:57;;;;;;;2.88;1.38;;;23.60;64.10;;;;;;10401611;28;20236;-57
2023/11/02 10:47:05;;;;;;;4.07;1.10;;;23.60;64.10;;;;;;10399731;28;20826;-51
2023/11/02 10:52:11;;;;;;;2.08;1.10;;;23.60;64.10;;;;;;10391797;28;20270;-46
2023/11/02 10:57:17;;;;;;;1.83;1.30;;;23.60;64.10;;;;;;10397545;28;20760;-48
2023/11/02 11:02:22;;;;;;;2.05;1.00;;;23.60;64.20;;;;;;10390512;28;20228;-53
2023/11/02 11:07:26;;;;;;;2.10;1.10;;;23.60;64.20;;;;;;10392178;28;20323;-53
2023/11/02 11:12:36;;;;;;;1.83;0.90;;;23.70;64.20;;;;;;10392399;28;20295;-47
2023/11/02 11:17:44;;;;;;;4.03;1.20;;;23.70;64.20;;;;;;10395653;28;20244;-44
2023/11/02 11:22:51;;;;;;;2.50;1.10;;;23.70;64.20;;;;;;10392266;28;20220;-51
2023/11/02 11:27:57;;;;;;;2.33;1.20;;;23.70;64.10;;;;;;10395589;28;20251;-49
2023/11/02 11:33:03;;;;;;;4.00;1.30;;;23.70;64.20;;;;;;10411831;28;20223;-52
2023/11/02 11:38:36;;;;;;;3.38;0.95;;;23.70;64.20;;;;;;10413053;28;20641;-61
2023/11/02 11:44:05;;;;;;;2.47;0.95;;;23.70;65.10;;;;;;10395586;28;20221;-54
2023/11/02 11:49:47;;;;;;;1.83;1.00;;;23.70;64.20;;;;;;10387912;28;20314;-51
2023/11/02 11:54:51;;;;;;;1.63;0.65;;;23.70;64.20;;;;;;10393449;28;20219;-55
2023/11/02 12:00:12;;;;;;;2.70;1.02;;;23.70;64.20;;;;;;10393591;28;20232;-53
2023/11/02 12:05:56;;;;;;;1.98;1.02;;;23.70;64.20;;;;;;10387662;28;20278;-52
2023/11/02 12:11:01;;;;;;;2.90;1.05;;;23.70;64.20;;;;;;10391108;28;20293;-49
2023/11/02 12:16:05;;;;;;;3.45;1.17;;;23.80;64.20;;;;;;10390613;28;20252;-53
2023/11/02 12:21:17;;;;;;;4.72;1.30;;;23.70;64.10;;;;;;10386437;28;20647;-51
2023/11/02 12:26:21;;;;;;;7.35;2.03;;;23.70;64.20;;;;;;10389407;28;20251;-49
2023/11/02 12:31:30;;;;;;;9.10;1.95;;;23.70;64.10;;;;;;10389672;28;20244;-50
2023/11/02 12:36:36;;;;;;;4.88;1.52;;;23.70;64.10;;;;;;10396371;28;20326;-52
2023/11/02 12:41:41;;;;;;;5.38;1.70;;;23.70;64.10;;;;;;10398335;28;20751;-49
2023/11/02 12:46:48;;;;;;;4.57;1.42;;;23.80;64.20;;;;;;10392877;28;20315;-52
2023/11/02 12:52:08;;;;;;;6.85;1.90;;;23.80;64.20;;;;;;10401117;28;20269;-53
2023/11/02 12:57:12;;;;;;;8.18;1.88;;;23.70;64.20;;;;;;10387327;28;20301;-52
2023/11/02 13:02:25;;;;;;;7.43;1.88;;;23.80;64.20;;;;;;10394448;28;20265;-51
2023/11/02 13:07:33;;;;;;;7.78;1.80;;;23.80;64.20;;;;;;10392299;28;20251;-54
2023/11/02 13:12:42;;;;;;;6.03;1.70;;;23.80;64.20;;;;;;10393616;28;20235;-59
2023/11/02 13:17:46;;;;;;;4.20;1.60;;;23.80;64.20;;;;;;10391480;28;20305;-56
2023/11/02 13:22:52;;;;;;;8.80;2.33;;;23.80;64.20;;;;;;10390101;28;20286;-53
2023/11/02 13:27:56;;;;;;;5.25;1.67;;;23.80;64.30;;;;;;10387083;28;20738;-53
2023/11/02 13:33:00;;;;;;;7.75;1.75;;;23.80;64.30;;;;;;10381465;28;20793;-51
2023/11/02 13:38:07;;;;;;;4.85;1.55;;;23.80;64.30;;;;;;10393203;28;20243;-60
2023/11/02 13:43:11;;;;;;;10.38;1.67;;;23.80;64.30;;;;;;10396543;28;20236;-49
2023/11/02 13:48:15;;;;;;;8.35;1.58;;;23.80;64.30;;;;;;10383541;28;20248;-54
2023/11/02 13:53:22;;;;;;;7.53;1.92;;;23.80;64.30;;;;;;10387698;28;20223;-56
2023/11/02 13:58:26;;;;;;;5.07;1.50;;;23.80;64.30;;;;;;10389339;28;20252;-49
2023/11/02 14:03:30;;;;;;;6.22;2.20;;;23.90;64.30;;;;;;10391037;28;20307;-54
2023/11/02 14:08:37;;;;;;;6.63;2.67;;;23.80;64.20;;;;;;10385749;28;20334;-52
2023/11/02 14:13:42;;;;;;;10.60;3.30;;;23.80;64.20;;;;;;10401927;28;20227;-53
2023/11/02 14:18:46;;;;;;;12.48;4.25;;;23.80;64.30;;;;;;10393342;28;20251;-59
2023/11/02 14:23:51;;;;;;;16.15;4.50;;;23.70;64.20;;;;;;10393925;28;20228;-50
2023/11/02 14:28:55;;;;;;;8.90;3.00;;;23.70;64.00;;;;;;10402091;28;20286;-51
2023/11/02 14:34:01;;;;;;;9.40;2.20;;;23.70;63.40;;;;;;10400475;28;20736;-52
2023/11/02 14:39:06;;;;;;;6.88;2.03;;;23.70;63.10;;;;;;10403306;28;20215;-52
2023/11/02 14:44:10;;;;;;;6.88;2.45;;;23.70;62.80;;;;;;10407520;28;20242;-54
2023/11/02 14:49:13;;;;;;;6.70;2.25;;;23.70;62.50;;;;;;10405242;28;20698;-54
2023/11/02 14:54:18;;;;;;;6.85;2.20;;;23.70;62.50;;;;;;10397095;28;20751;-58
2023/11/02 14:59:22;;;;;;;7.97;2.25;;;23.70;62.30;;;;;;10401562;28;20286;-59
2023/11/02 15:04:26;;;;;;;6.00;2.42;;;23.70;62.20;;;;;;10397687;28;20220;-52
2023/11/02 15:09:31;;;;;;;5.07;2.05;;;23.70;62.10;;;;;;10398467;28;20256;-48
2023/11/02 15:14:35;;;;;;;6.40;2.45;;;23.70;62.10;;;;;;10402150;28;20193;-56
2023/11/02 15:19:41;;;;;;;7.75;2.22;;;23.70;62.10;;;;;;10404610;28;20783;-56
2023/11/02 15:24:46;;;;;;;7.00;2.13;;;23.70;62.10;;;;;;10394090;28;20251;-49
2023/11/02 15:29:50;;;;;;;4.15;1.60;;;23.70;62.10;;;;;;10393704;28;20259;-49
2023/11/02 15:34:55;;;;;;;6.20;2.25;;;23.70;62.10;;;;;;10403826;28;21035;-58
2023/11/02 15:40:00;;;;;;;6.28;1.85;;;23.80;62.10;;;;;;10404250;28;20196;-60
2023/11/02 15:45:06;;;;;;;5.57;2.20;;;23.70;62.10;;;;;;10412011;28;20246;-63
2023/11/02 15:50:12;;;;;;;7.68;1.90;;;23.80;62.10;;;;;;10408940;28;20667;-61
2023/11/02 15:55:17;;;;;;;6.72;2.13;;;23.80;62.10;;;;;;10411628;28;20978;-64
2023/11/02 16:00:21;;;;;;;5.55;1.65;;;23.70;62.00;;;;;;10407003;28;20278;-63
2023/11/02 16:05:25;;;;;;;6.05;1.90;;;23.70;62.00;;;;;;10412494;28;20262;-63
2023/11/02 16:10:30;;;;;;;5.22;1.77;;;23.60;61.90;;;;;;10415828;28;20701;-63
2023/11/02 16:15:33;;;;;;;6.30;2.05;;;23.60;61.80;;;;;;10409448;28;20818;-63
2023/11/02 16:20:37;;;;;;;5.40;1.60;;;23.60;61.80;;;;;;10411793;28;20286;-63
2023/11/02 16:25:43;;;;;;;5.88;2.17;;;23.60;61.80;;;;;;10401381;28;20228;-64
2023/11/02 16:30:46;;;;;;;4.15;1.83;;;23.60;61.80;;;;;;10397522;28;20290;-62
2023/11/02 16:35:50;;;;;;;4.70;1.95;;;23.60;61.90;;;;;;10411691;28;20232;-64
2023/11/02 16:40:55;;;;;;;4.70;1.70;;;23.50;61.80;;;;;;10401318;28;20204;-66
2023/11/02 16:45:59;;;;;;;4.10;1.63;;;23.50;61.80;;;;;;10404176;28;20224;-63
2023/11/02 16:51:02;;;;;;;5.85;1.80;;;23.50;61.80;;;;;;10421467;28;20224;-66
2023/11/02 16:56:10;;;;;;;5.22;1.60;;;23.50;61.80;;;;;;10410776;28;20220;-63
2023/11/02 17:01:14;;;;;;;3.75;1.65;;;23.50;61.70;;;;;;10417760;28;20204;-62
2023/11/02 17:06:17;;;;;;;4.75;1.77;;;23.50;61.70;;;;;;10384254;28;20259;-58
2023/11/02 17:11:22;;;;;;;5.45;1.73;;;23.60;61.80;;;;;;10397955;28;20244;-56
2023/11/02 17:16:27;;;;;;;5.28;1.90;;;23.60;61.80;;;;;;10393654;28;20310;-46
2023/11/02 17:21:31;;;;;;;9.88;1.80;;;23.60;61.70;;;;;;10405987;28;20208;-51
2023/11/02 17:26:37;;;;;;;4.18;1.60;;;23.60;61.70;;;;;;10405827;28;20228;-49
2023/11/02 17:31:41;;;;;;;4.00;1.73;;;23.70;61.80;;;;;;10373251;28;20872;-57
2023/11/02 17:36:45;;;;;;;5.03;1.80;;;23.60;61.50;;;;;;10398594;28;20278;-51
2023/11/02 17:41:50;;;;;;;4.00;1.50;;;23.70;61.60;;;;;;10389685;28;20282;-54
2023/11/02 17:46:53;;;;;;;4.65;1.80;;;23.80;61.50;;;;;;10387621;28;20239;-56
2023/11/02 17:51:57;;;;;;;11.00;2.65;;;23.80;61.40;;;;;;10417020;28;20228;-55
2023/11/02 17:57:03;;;;;;;12.07;2.30;;;23.80;61.40;;;;;;10425517;28;20223;-52
2023/11/02 18:02:07;;;;;;;5.88;1.70;;;23.70;61.40;;;;;;10405710;28;20192;-54
2023/11/02 18:07:12;;;;;;;7.50;1.70;;;23.70;61.40;;;;;;10392600;28;20275;-52
2023/11/02 18:12:17;;;;;;;4.75;1.40;;;23.70;61.40;;;;;;10394339;28;20305;-56
2023/11/02 18:17:20;;;;;;;5.00;1.80;;;23.60;61.40;;;;;;10395202;28;20273;-52
2023/11/02 18:22:24;;;;;;;6.72;1.58;;;23.60;61.40;;;;;;10391752;28;20196;-52
2023/11/02 18:27:29;;;;;;;4.40;1.65;;;23.60;61.40;;;;;;10400106;28;20345;-52
2023/11/02 18:32:34;;;;;;;7.05;1.80;;;23.60;61.40;;;;;;10395726;28;20227;-55
2023/11/02 18:37:38;;;;;;;3.53;1.63;;;23.60;61.40;;;;;;10399014;28;20735;-55
2023/11/02 18:42:43;;;;;;;4.60;1.90;;;23.50;61.40;;;;;;10400964;28;20209;-59
2023/11/02 18:47:47;;;;;;;3.00;1.55;;;23.50;61.30;;;;;;10396277;28;20309;-54
2023/11/02 18:52:51;;;;;;;3.95;1.77;;;23.50;61.40;;;;;;10392827;28;20236;-52
2023/11/02 18:57:56;;;;;;;5.13;1.90;;;23.50;61.30;;;;;;10414866;28;20223;-53
2023/11/02 19:03:00;;;;;;;4.35;1.92;;;23.50;61.30;;;;;;10412235;28;20208;-55
2023/11/02 19:08:04;;;;;;;4.85;1.80;;;23.50;61.30;;;;;;10399794;28;20224;-57
2023/11/02 19:13:09;;;;;;;4.50;1.75;;;23.50;61.30;;;;;;10400265;28;20682;-54
2023/11/02 19:18:13;;;;;;;6.00;2.17;;;23.50;61.30;;;;;;10393666;28;20232;-54
2023/11/02 19:23:17;;;;;;;8.57;2.42;;;23.40;61.30;;;;;;10404391;28;20208;-53
2023/11/02 19:28:23;;;;;;;5.20;2.03;;;23.40;61.20;;;;;;10403117;28;20264;-52
2023/11/02 19:33:27;;;;;;;7.38;2.30;;;23.50;61.30;;;;;;10402612;28;20208;-54
2023/11/02 19:38:31;;;;;;;4.53;1.80;;;23.50;61.30;;;;;;10400055;28;20252;-55
2023/11/02 19:43:36;;;;;;;5.10;2.30;;;23.50;61.30;;;;;;10403518;28;20228;-54
2023/11/02 19:48:43;;;;;;;4.82;1.60;;;23.50;61.30;;;;;;10393047;28;20308;-55
2023/11/02 19:53:47;;;;;;;5.57;2.10;;;23.50;61.30;;;;;;10392297;28;20286;-54
2023/11/02 19:58:52;;;;;;;4.15;1.95;;;23.40;61.10;;;;;;10397947;28;20281;-53
2023/11/02 20:03:56;;;;;;;5.07;2.03;;;23.40;61.40;;;;;;10396442;28;20220;-52
2023/11/02 20:09:00;;;;;;;5.13;1.63;;;23.40;61.20;;;;;;10406805;28;20640;-51
2023/11/02 20:14:05;;;;;;;4.90;1.98;;;23.40;61.10;;;;;;10413077;28;20586;-57
2023/11/02 20:19:09;;;;;;;5.25;1.73;;;23.40;61.10;;;;;;10408101;28;20640;-59
2023/11/02 20:24:12;;;;;;;3.70;1.75;;;23.40;61.10;;;;;;10405575;28;20212;-53
2023/11/02 20:29:17;;;;;;;3.63;2.08;;;23.40;61.10;;;;;;10407884;28;20231;-53
2023/11/02 20:34:21;;;;;;;4.00;1.60;;;23.40;61.10;;;;;;10410966;28;20556;-53
2023/11/02 20:39:25;;;;;;;3.35;1.65;;;23.40;61.10;;;;;;10411019;28;20212;-52
2023/11/02 20:44:30;;;;;;;4.85;1.52;;;23.40;61.00;;;;;;10399428;28;20266;-52
2023/11/02 20:49:34;;;;;;;5.72;1.77;;;23.40;61.00;;;;;;10397592;28;20681;-51
2023/11/02 20:54:38;;;;;;;3.70;1.80;;;23.40;61.00;;;;;;10412471;28;20277;-49
2023/11/02 20:59:44;;;;;;;3.80;1.70;;;23.40;61.00;;;;;;10412727;28;20274;-50
2023/11/02 21:04:49;;;;;;;4.30;1.80;;;23.40;61.00;;;;;;10410709;28;20200;-50
2023/11/02 21:09:55;;;;;;;4.13;1.83;;;23.40;61.00;;;;;;10401912;28;20260;-50
2023/11/02 21:15:00;;;;;;;3.40;1.75;;;23.40;61.00;;;;;;10402871;28;20234;-52
2023/11/02 21:20:07;;;;;;;4.35;1.67;;;23.30;60.90;;;;;;10407222;28;20246;-50
2023/11/02 21:25:10;;;;;;;3.78;1.60;;;23.30;60.90;;;;;;10406144;28;20212;-50
2023/11/02 21:30:16;;;;;;;2.90;1.70;;;23.40;61.00;;;;;;10406268;28;20252;-51
2023/11/02 21:35:19;;;;;;;3.03;1.48;;;23.30;60.80;;;;;;10405161;28;20224;-51
2023/11/02 21:40:23;;;;;;;3.90;1.88;;;23.40;61.00;;;;;;10396374;28;20216;-52
2023/11/02 21:45:29;;;;;;;2.72;1.40;;;23.30;60.80;;;;;;10406915;28;20270;-51
2023/11/02 21:50:33;;;;;;;3.67;1.48;;;23.30;60.80;;;;;;10406603;28;20247;-51
2023/11/02 21:55:37;;;;;;;3.45;1.45;;;23.30;60.80;;;;;;10399841;28;20223;-50
2023/11/02 22:00:42;;;;;;;4.70;1.42;;;23.30;60.80;;;;;;10405477;28;20794;-50
2023/11/02 22:05:45;;;;;;;3.55;1.40;;;23.30;60.80;;;;;;10396867;28;20224;-50
2023/11/02 22:10:49;;;;;;;3.10;1.23;;;23.30;60.80;;;;;;10399442;28;20251;-52
2023/11/02 22:15:54;;;;;;;3.03;1.30;;;23.30;60.70;;;;;;10405994;28;20228;-50
2023/11/02 22:20:58;;;;;;;4.95;1.50;;;23.30;60.70;;;;;;10400099;28;20257;-51
2023/11/02 22:26:01;;;;;;;3.45;1.17;;;23.30;60.70;;;;;;10406861;28;20224;-49
2023/11/02 22:31:10;;;;;;;2.63;1.77;;;23.30;60.80;;;;;;10405885;28;20755;-49
2023/11/02 22:36:13;;;;;;;2.30;1.15;;;23.30;60.70;;;;;;10405010;28;20228;-51
2023/11/02 22:41:17;;;;;;;4.35;1.42;;;23.30;60.70;;;;;;10413909;28;20200;-50
2023/11/02 22:46:22;;;;;;;2.28;1.15;;;23.30;60.70;;;;;;10395865;28;20305;-50
2023/11/02 22:51:26;;;;;;;2.03;1.25;;;23.30;60.70;;;;;;10407804;28;20282;-50
2023/11/02 22:56:29;;;;;;;3.38;1.50;;;23.30;60.70;;;;;;10410730;28;20250;-50
2023/11/02 23:01:34;;;;;;;2.80;1.52;;;23.30;60.70;;;;;;10411331;28;20208;-51
2023/11/02 23:06:38;;;;;;;2.08;1.13;;;23.30;60.70;;;;;;10413457;28;20284;-52
2023/11/02 23:11:42;;;;;;;3.15;1.40;;;23.30;60.70;;;;;;10412659;28;20223;-50
2023/11/02 23:16:47;;;;;;;2.65;1.27;;;23.30;60.70;;;;;;10404867;28;20225;-52
2023/11/02 23:21:50;;;;;;;2.08;1.23;;;23.30;61.50;;;;;;10410419;28;20832;-51
2023/11/02 23:26:54;;;;;;;2.83;1.27;;;23.30;60.80;;;;;;10399986;28;20271;-50
2023/11/02 23:31:59;;;;;;;3.13;1.40;;;23.30;60.80;;;;;;10408997;28;20653;-52
2023/11/02 23:37:02;;;;;;;1.80;1.13;;;23.30;60.70;;;;;;10409394;28;20227;-49
2023/11/02 23:42:07;;;;;;;2.28;1.20;;;23.30;60.80;;;;;;10403269;28;20281;-50
2023/11/02 23:47:12;;;;;;;2.22;1.13;;;23.30;60.70;;;;;;10406230;28;20272;-49
2023/11/02 23:52:16;;;;;;;2.97;1.05;;;23.30;60.70;;;;;;10407387;28;20744;-49
2023/11/02 23:57:20;;;;;;;2.08;1.25;;;23.40;60.80;;;;;;10406080;28;20759;-52
